Ashotsk, Armenia

7:47 AM AMT on August 30, 2015 (GMT +0400)
Gyumri Shirak Airport | | Change Station
CLOSE
Current Station
Airport
Location: Gyumri Shirak Airport,
Elevation: 5000 ft
Nearby Weather Stations

Elev 5000 ft 40.75 °N, 43.86 °E | Updated 17 minutes ago

Clear
Clear
52 °F
Feels Like 52 °F
N
4
Wind Variable Wind from West

Today
High -- | Low -- °F
--% Chance of Precip.
Yesterday
High -- | Low -- °F
Precip. -- in
6:29 AM 7:41 PM
Full, 100% visible
Pressure 30.18 in
Visibility 6.2 miles
Clouds
Dew Point 48 °F
Humidity 88%
Rainfall 0.00 in
Snow Depth Not available.
UV Not available.
Pollen Not available.
Air Quality Not available.
Flu Activity Not available.
METAR UDSG 300330Z 27002MPS 9999 NSC 11/09 Q1022 R02/CLRD70 NOSIG
Pressure 30.18 in
Visibility 6.2 miles
Clouds
Dew Point 48 °F
Humidity 88%
Rainfall 0.00 in
Snow Depth Not available.
UV Not available.
Pollen Not available.
Air Quality Not available.
Flu Activity Not available.
METAR UDSG 300330Z 27002MPS 9999 NSC 11/09 Q1022 R02/CLRD70 NOSIG

10-Day Weather Forecast

×

Almanac

Astronomy

Aug. 30, 2015 Rise Set
Actual Time
Civil Twilight
Nautical Twilight
Astronomical Twilight
Moon
Length of Visible Light
Length of Day
Tomorrow will be .
, % of the Moon is Illuminated

Today's Extremes

Country Highs Country Lows

Community

WunderPhotos

Upload Photos

1,850,870 photos uploaded!

WunderBlogs® & News

Nearby

Air Quality

  Air Quality AQ Index Pollutant
Not available.

Snow Depth

Station Depth Elevation

Earthquake Activity

City Distance Mag. Time & Date
Minimum magnitude displayed is 2.5.

Coastal Water Temperatures

Place Temperature

Stations

Nearby Weather Stations

Station Location Temp. Windchill Dew Point Humidity Wind Precip. Elev Updated Type